createdAt,value
2023-04-26T05:24:30.753Z,9.28
2023-04-26T05:27:04.376Z,9.34
2023-04-26T05:29:36.714Z,9.41
2023-04-26T05:32:10.731Z,9.48
2023-04-26T05:34:44.021Z,9.57
2023-04-26T05:37:17.745Z,9.61
2023-04-26T05:39:51.217Z,9.66
2023-04-26T05:42:23.588Z,9.72
2023-04-26T05:45:00.363Z,9.78
2023-04-26T05:47:32.638Z,9.87
2023-04-26T05:50:05.334Z,9.93
2023-04-26T05:52:37.708Z,9.93
2023-04-26T05:55:11.460Z,9.96
2023-04-26T05:57:44.413Z,10.02
2023-04-26T06:00:20.399Z,10.10
2023-04-26T06:02:53.084Z,10.21
2023-04-26T06:05:26.242Z,10.30
2023-04-26T06:07:58.813Z,10.42
2023-04-26T06:10:31.901Z,10.50
2023-04-26T06:13:04.711Z,10.49
2023-04-26T06:15:48.246Z,10.55
2023-04-26T06:18:20.632Z,10.63
2023-04-26T06:20:53.548Z,10.75
2023-04-26T06:23:26.280Z,10.90
2023-04-26T06:25:59.264Z,11.01
2023-04-26T06:28:31.651Z,11.10
2023-04-26T06:31:07.442Z,11.22
2023-04-26T06:33:40.032Z,11.48
2023-04-26T06:36:15.758Z,11.76
2023-04-26T06:38:48.195Z,12.10
2023-04-26T06:41:22.277Z,12.28
2023-04-26T06:43:54.837Z,12.43
2023-04-26T06:46:27.624Z,12.68
2023-04-26T06:49:00.179Z,13.00
2023-04-26T06:51:34.732Z,13.36
2023-04-26T06:54:07.674Z,13.71
2023-04-26T06:56:40.100Z,14.00
2023-04-26T06:59:12.505Z,14.23
2023-04-26T07:01:44.901Z,14.40
2023-04-26T07:04:18.911Z,14.57
2023-04-26T07:06:51.817Z,14.68
2023-04-26T07:09:24.220Z,14.90
2023-04-26T07:11:56.686Z,15.07
2023-04-26T07:14:29.585Z,15.24
2023-04-26T07:17:01.978Z,15.40
2023-04-26T07:19:34.460Z,15.65
2023-04-26T07:22:06.880Z,15.90
2023-04-26T07:24:39.714Z,16.00
2023-04-26T07:27:12.255Z,16.19
2023-04-26T07:29:44.533Z,16.30
2023-04-26T07:32:17.296Z,16.44
2023-04-26T07:34:49.781Z,16.51
2023-04-26T07:37:22.211Z,16.81
2023-04-26T07:39:54.914Z,17.09
2023-04-26T07:42:27.366Z,17.37
2023-04-26T07:45:00.068Z,17.56
2023-04-26T07:47:32.427Z,17.78
2023-04-26T07:50:04.910Z,18.08
2023-04-26T07:52:37.818Z,18.26
2023-04-26T07:55:12.776Z,18.34
2023-04-26T07:57:46.244Z,18.39
2023-04-26T08:00:22.423Z,18.44
2023-04-26T08:02:55.202Z,18.43
2023-04-26T08:05:28.138Z,18.46
2023-04-26T08:08:01.830Z,18.44
2023-04-26T08:10:34.099Z,18.64
2023-04-26T08:13:06.789Z,18.76
2023-04-26T08:15:39.413Z,18.99
2023-04-26T08:18:11.837Z,19.09
2023-04-26T08:20:44.205Z,19.26
2023-04-26T08:23:16.520Z,19.24
2023-04-26T08:25:49.841Z,19.07
2023-04-26T08:28:22.123Z,19.09
2023-04-26T08:30:54.416Z,19.19
2023-04-26T08:33:26.983Z,19.20
2023-04-26T08:36:00.220Z,19.21
2023-04-26T08:38:33.406Z,19.42
2023-04-26T08:41:08.025Z,19.47
2023-04-26T08:43:41.762Z,19.30
2023-04-26T08:46:17.766Z,19.10
2023-04-26T08:49:01.346Z,19.07
2023-04-26T08:51:34.936Z,19.30
2023-04-26T08:54:09.215Z,19.25
2023-04-26T08:56:44.230Z,19.25
2023-04-26T08:59:17.151Z,19.61
2023-04-26T09:01:51.124Z,19.95
2023-04-26T09:04:24.477Z,20.35
2023-04-26T09:07:02.058Z,20.65
2023-04-26T09:09:42.755Z,20.95
2023-04-26T09:12:16.175Z,21.05
2023-04-26T09:14:49.002Z,20.94
2023-04-26T09:17:32.042Z,20.71
2023-04-26T09:20:18.938Z,20.73
2023-04-26T09:22:52.585Z,20.46
2023-04-26T09:25:31.566Z,20.67
2023-04-26T09:28:05.483Z,20.93
2023-04-26T09:30:41.769Z,21.18
2023-04-26T09:33:14.034Z,21.33
2023-04-26T09:35:47.012Z,21.35
2023-04-26T09:38:20.016Z,21.47
2023-04-26T09:40:53.072Z,21.61
2023-04-26T09:43:25.738Z,21.67
2023-04-26T09:46:00.258Z,21.55
2023-04-26T09:48:34.619Z,21.19
2023-04-26T09:51:13.630Z,20.77
2023-04-26T09:53:51.317Z,20.46
2023-04-26T09:56:23.718Z,20.14
2023-04-26T09:59:05.305Z,20.02
2023-04-26T10:01:38.784Z,20.13
2023-04-26T10:04:11.587Z,20.47
2023-04-26T10:06:43.983Z,20.61
2023-04-26T10:09:16.783Z,20.43
2023-04-26T10:11:49.993Z,20.01
2023-04-26T10:14:24.387Z,19.69
2023-04-26T10:16:58.163Z,19.52
2023-04-26T10:19:30.931Z,19.56
2023-04-26T10:22:08.404Z,19.84
2023-04-26T10:24:41.175Z,20.12
2023-04-26T10:27:13.681Z,20.20
2023-04-26T10:30:10.667Z,20.19
2023-04-26T10:33:16.875Z,20.11
2023-04-26T10:36:10.575Z,19.82
2023-04-26T10:39:06.105Z,19.44
2023-04-26T10:41:40.312Z,19.23
2023-04-26T10:44:45.690Z,19.23
2023-04-26T10:47:31.564Z,19.11
2023-04-26T10:50:06.553Z,19.05
2023-04-26T10:52:39.877Z,19.09
2023-04-26T10:55:12.353Z,19.24
2023-04-26T10:57:54.188Z,19.44
2023-04-26T11:00:33.722Z,19.54
2023-04-26T11:03:15.459Z,19.54
2023-04-26T11:05:58.299Z,19.39
2023-04-26T11:08:32.109Z,19.48
2023-04-26T11:11:12.203Z,19.55
2023-04-26T11:13:45.704Z,19.50
2023-04-26T11:16:19.477Z,19.46
2023-04-26T11:18:55.886Z,19.49
2023-04-26T11:21:29.175Z,19.47
2023-04-26T11:24:01.430Z,19.44
2023-04-26T11:26:37.153Z,19.45
2023-04-26T11:29:13.746Z,19.42
2023-04-26T11:31:52.072Z,19.35
2023-04-26T11:34:35.356Z,19.34
2023-04-26T11:37:08.773Z,19.36
2023-04-26T11:39:41.172Z,19.41
2023-04-26T11:42:14.734Z,19.46
2023-04-26T11:44:47.716Z,19.47
2023-04-26T11:47:21.247Z,19.41
2023-04-26T11:49:53.972Z,19.29
2023-04-26T11:52:27.614Z,19.33
2023-04-26T11:55:07.774Z,19.31
2023-04-26T11:57:40.124Z,19.29
2023-04-26T12:00:16.104Z,19.20
2023-04-26T12:02:49.569Z,19.13
2023-04-26T12:05:30.844Z,19.18
2023-04-26T12:08:03.733Z,19.24
2023-04-26T12:10:39.011Z,19.21
2023-04-26T12:13:16.724Z,19.08
2023-04-26T12:15:51.519Z,18.96
2023-04-26T12:18:30.895Z,18.98
2023-04-26T12:21:03.985Z,18.95
2023-04-26T12:23:42.226Z,18.92
2023-04-26T12:26:15.331Z,18.83
2023-04-26T12:28:48.100Z,18.82
2023-04-26T12:31:20.648Z,18.80
2023-04-26T12:33:53.038Z,18.73
2023-04-26T12:36:25.371Z,18.66
2023-04-26T12:38:58.180Z,18.56
2023-04-26T12:41:30.573Z,18.53
2023-04-26T12:44:03.336Z,18.54
2023-04-26T12:46:35.436Z,18.51
2023-04-26T12:49:08.058Z,18.46
2023-04-26T12:51:40.836Z,18.44
2023-04-26T12:54:13.245Z,18.35
2023-04-26T12:56:46.252Z,18.15
2023-04-26T12:59:18.738Z,17.99
2023-04-26T13:01:51.123Z,17.90
2023-04-26T13:04:23.775Z,17.80
2023-04-26T13:06:56.736Z,17.67
2023-04-26T13:09:29.132Z,17.58
2023-04-26T13:12:01.538Z,17.52
2023-04-26T13:14:34.030Z,17.46
2023-04-26T13:17:08.640Z,17.38
2023-04-26T13:19:41.141Z,17.27
2023-04-26T13:22:15.157Z,17.16
2023-04-26T13:24:47.907Z,17.06
2023-04-26T13:27:20.248Z,16.95
2023-04-26T13:29:53.156Z,16.82
2023-04-26T13:32:25.618Z,16.75
2023-04-26T13:34:58.386Z,16.67
2023-04-26T13:37:31.917Z,16.57
2023-04-26T13:40:05.467Z,16.46
2023-04-26T13:42:37.903Z,16.36
2023-04-26T13:45:17.018Z,16.26
2023-04-26T13:47:50.989Z,16.17
2023-04-26T13:50:23.328Z,16.09
2023-04-26T13:52:55.682Z,16.05
2023-04-26T13:55:29.906Z,16.06
2023-04-26T13:58:02.737Z,16.05
2023-04-26T14:00:35.075Z,16.04
2023-04-26T14:03:07.899Z,16.01
2023-04-26T14:05:40.391Z,15.97
2023-04-26T14:08:12.875Z,16.00
2023-04-26T14:10:45.622Z,16.02
2023-04-26T14:13:18.617Z,16.02
2023-04-26T14:15:51.406Z,16.04
2023-04-26T14:18:23.915Z,16.07
2023-04-26T14:20:56.205Z,16.08
2023-04-26T14:23:28.772Z,16.06
2023-04-26T14:26:01.010Z,16.05
2023-04-26T14:28:33.494Z,16.02
2023-04-26T14:31:06.098Z,16.00
2023-04-26T14:33:38.609Z,16.00
2023-04-26T14:36:11.557Z,16.02
2023-04-26T14:38:46.693Z,16.07
2023-04-26T14:41:20.471Z,16.04
2023-04-26T14:43:52.839Z,16.00
2023-04-26T14:46:25.173Z,15.98
2023-04-26T14:48:57.430Z,15.94
2023-04-26T14:51:29.880Z,15.91
2023-04-26T14:54:02.456Z,15.92
2023-04-26T14:56:37.371Z,15.93
2023-04-26T14:59:09.755Z,15.93
2023-04-26T15:01:42.068Z,15.92
2023-04-26T15:04:14.670Z,15.89
2023-04-26T15:06:47.355Z,15.86
2023-04-26T15:09:19.665Z,15.85
2023-04-26T15:11:51.990Z,15.84
2023-04-26T15:14:24.461Z,15.82
2023-04-26T15:16:57.281Z,15.82
2023-04-26T15:19:29.738Z,15.80
2023-04-26T15:22:02.181Z,15.76
2023-04-26T15:24:38.739Z,15.72
2023-04-26T15:27:11.108Z,15.68
2023-04-26T15:29:43.632Z,15.64
2023-04-26T15:32:15.793Z,15.62
2023-04-26T15:34:48.414Z,15.58
2023-04-26T15:37:20.943Z,15.54
2023-04-26T15:39:53.458Z,15.48
2023-04-26T15:42:25.864Z,15.42
2023-04-26T15:44:58.251Z,15.38
2023-04-26T15:47:30.637Z,15.37
2023-04-26T15:50:05.913Z,15.36
2023-04-26T15:52:39.689Z,15.34
2023-04-26T15:55:12.605Z,15.30
2023-04-26T15:57:45.754Z,15.27
2023-04-26T16:00:19.877Z,15.26
2023-04-26T16:02:52.526Z,15.23
2023-04-26T16:05:25.000Z,15.21
2023-04-26T16:07:57.448Z,15.19
2023-04-26T16:10:30.370Z,15.18
2023-04-26T16:13:02.768Z,15.17
2023-04-26T16:15:35.143Z,15.09
2023-04-26T16:18:07.715Z,15.00
2023-04-26T16:20:40.144Z,14.90
2023-04-26T16:23:12.514Z,14.81
2023-04-26T16:25:45.402Z,14.76
2023-04-26T16:28:18.125Z,14.71
2023-04-26T16:30:50.590Z,14.65
2023-04-26T16:33:23.635Z,14.63
2023-04-26T16:35:56.963Z,14.61
2023-04-26T16:38:29.280Z,14.59
2023-04-26T16:41:02.648Z,14.53
2023-04-26T16:43:35.018Z,14.48
2023-04-26T16:46:09.296Z,14.43
2023-04-26T16:48:41.911Z,14.38
2023-04-26T16:51:14.336Z,14.34
2023-04-26T16:53:46.666Z,14.28
2023-04-26T16:56:19.063Z,14.19
2023-04-26T16:58:51.761Z,14.12
2023-04-26T17:01:24.183Z,14.01
2023-04-26T17:03:57.364Z,13.95
2023-04-26T17:06:30.023Z,13.89
2023-04-26T17:09:02.480Z,13.81
2023-04-26T17:11:37.440Z,13.72
2023-04-26T17:14:09.797Z,13.71
2023-04-26T17:16:42.416Z,13.68
2023-04-26T17:19:14.816Z,13.66
2023-04-26T17:21:47.241Z,13.64
2023-04-26T17:24:19.631Z,13.59
2023-04-26T17:26:51.974Z,13.53
2023-04-26T17:29:24.307Z,13.46
2023-04-26T17:31:56.666Z,13.44
2023-04-26T17:34:29.062Z,13.39
2023-04-26T17:37:01.531Z,13.38
2023-04-26T17:39:35.281Z,13.40
2023-04-26T17:42:07.760Z,13.44
2023-04-26T17:44:40.094Z,13.46
2023-04-26T17:47:12.551Z,13.46
2023-04-26T17:49:44.917Z,13.47
2023-04-26T17:52:18.519Z,13.47
2023-04-26T17:54:50.954Z,13.47
2023-04-26T17:57:24.254Z,13.47
2023-04-26T17:59:57.288Z,13.46
2023-04-26T18:02:29.681Z,13.45
2023-04-26T18:05:02.262Z,13.43
2023-04-26T18:07:34.851Z,13.40
2023-04-26T18:10:08.801Z,13.38
2023-04-26T18:12:41.116Z,13.38
2023-04-26T18:15:14.039Z,13.37
2023-04-26T18:17:46.596Z,13.35
2023-04-26T18:20:19.022Z,13.31
2023-04-26T18:22:51.688Z,13.26
2023-04-26T18:25:24.110Z,13.23
2023-04-26T18:27:56.481Z,13.21
2023-04-26T18:30:29.136Z,13.15
2023-04-26T18:33:04.362Z,13.04
2023-04-26T18:35:36.766Z,13.00
2023-04-26T18:38:09.159Z,12.96
2023-04-26T18:40:46.242Z,12.95
2023-04-26T18:43:18.948Z,12.93
2023-04-26T18:45:52.770Z,12.86
2023-04-26T18:48:25.152Z,12.84
2023-04-26T18:50:58.102Z,12.82
2023-04-26T18:53:30.787Z,12.82
2023-04-26T18:56:03.255Z,12.84
2023-04-26T18:58:37.167Z,12.85
2023-04-26T19:01:09.496Z,12.82
2023-04-26T19:03:44.465Z,12.79
2023-04-26T19:06:17.193Z,12.76
2023-04-26T19:08:49.503Z,12.73
2023-04-26T19:11:23.194Z,12.73
2023-04-26T19:13:56.787Z,12.76
2023-04-26T19:16:29.300Z,12.78
2023-04-26T19:19:02.141Z,12.75
2023-04-26T19:21:35.274Z,12.72
2023-04-26T19:24:08.746Z,12.70
2023-04-26T19:26:43.738Z,12.65
2023-04-26T19:29:16.069Z,12.58
2023-04-26T19:31:48.324Z,12.47
2023-04-26T19:34:21.813Z,12.38
2023-04-26T19:36:54.215Z,12.31
2023-04-26T19:39:26.545Z,12.25
2023-04-26T19:42:01.338Z,12.22
2023-04-26T19:44:33.596Z,12.17
2023-04-26T19:47:06.912Z,12.13
2023-04-26T19:49:39.719Z,12.13
2023-04-26T19:52:13.591Z,12.10
2023-04-26T19:54:45.835Z,12.09
2023-04-26T19:57:18.133Z,12.09
2023-04-26T19:59:50.450Z,12.09
2023-04-26T20:02:22.758Z,12.07
2023-04-26T20:04:55.193Z,12.05
2023-04-26T20:07:27.689Z,12.05
2023-04-26T20:10:00.051Z,12.03
2023-04-26T20:12:32.297Z,12.02
2023-04-26T20:15:04.712Z,11.99
2023-04-26T20:17:37.681Z,12.03
2023-04-26T20:20:12.435Z,12.04
2023-04-26T20:22:44.789Z,12.02
2023-04-26T20:25:19.957Z,11.99
2023-04-26T20:27:52.650Z,11.99
2023-04-26T20:30:25.801Z,11.95
2023-04-26T20:32:58.240Z,11.92
2023-04-26T20:35:30.746Z,11.89
2023-04-26T20:38:03.224Z,11.82
2023-04-26T20:40:35.602Z,11.74
2023-04-26T20:43:08.102Z,11.66
2023-04-26T20:45:41.408Z,11.57
2023-04-26T20:48:14.314Z,11.51
2023-04-26T20:50:46.492Z,11.47
2023-04-26T20:53:18.859Z,11.40
2023-04-26T20:55:52.560Z,11.36
2023-04-26T20:58:25.079Z,11.26
2023-04-26T21:00:59.445Z,11.19
2023-04-26T21:03:32.668Z,11.16
2023-04-26T21:06:05.214Z,11.11
2023-04-26T21:08:37.464Z,11.06
2023-04-26T21:11:09.879Z,11.03
2023-04-26T21:13:42.437Z,11.01
2023-04-26T21:16:14.757Z,10.98
2023-04-26T21:18:47.533Z,10.96
2023-04-26T21:21:20.270Z,10.95
2023-04-26T21:23:52.623Z,10.93
2023-04-26T21:26:24.926Z,10.90
2023-04-26T21:28:57.104Z,10.88
2023-04-26T21:31:29.532Z,10.88
2023-04-26T21:34:02.003Z,10.88
2023-04-26T21:36:34.361Z,10.83
2023-04-26T21:39:06.853Z,10.76
2023-04-26T21:41:39.333Z,10.71
2023-04-26T21:44:11.717Z,10.66
2023-04-26T21:46:44.113Z,10.60
2023-04-26T21:49:16.475Z,10.54
2023-04-26T21:51:48.805Z,10.49
2023-04-26T21:54:21.091Z,10.43
2023-04-26T21:56:53.361Z,10.38
2023-04-26T21:59:25.796Z,10.36
2023-04-26T22:01:58.086Z,10.35
2023-04-26T22:04:30.523Z,10.34
2023-04-26T22:07:03.195Z,10.28
2023-04-26T22:09:35.811Z,10.22
2023-04-26T22:12:08.585Z,10.14
2023-04-26T22:14:40.942Z,10.09
2023-04-26T22:17:13.137Z,10.10
2023-04-26T22:19:45.609Z,10.09
2023-04-26T22:22:18.458Z,10.05
2023-04-26T22:24:52.094Z,10.01
2023-04-26T22:27:24.990Z,10.03
2023-04-26T22:29:57.482Z,10.04
2023-04-26T22:32:29.863Z,10.00
2023-04-26T22:35:02.139Z,9.95
2023-04-26T22:37:34.548Z,9.92
2023-04-26T22:40:10.404Z,9.89
2023-04-26T22:42:41.043Z,9.89
2023-04-26T22:45:15.167Z,9.85
2023-04-26T22:47:47.715Z,9.83
2023-04-26T22:50:20.214Z,9.82
2023-04-26T22:52:52.553Z,9.81
2023-04-26T22:55:25.118Z,9.78
2023-04-26T22:57:57.340Z,9.76
2023-04-26T23:00:29.747Z,9.75
2023-04-26T23:03:02.200Z,9.75
2023-04-26T23:05:34.670Z,9.73
2023-04-26T23:08:07.422Z,9.73
2023-04-26T23:10:41.541Z,9.71
2023-04-26T23:13:14.624Z,9.71
2023-04-26T23:15:47.021Z,9.69
2023-04-26T23:18:19.782Z,9.67
2023-04-26T23:20:52.700Z,9.64
2023-04-26T23:23:25.091Z,9.60
2023-04-26T23:25:57.417Z,9.60
2023-04-26T23:28:29.784Z,9.59
2023-04-26T23:31:02.288Z,9.56
2023-04-26T23:33:34.657Z,9.54
2023-04-26T23:36:08.151Z,9.51
2023-04-26T23:38:40.436Z,9.51
2023-04-26T23:41:12.785Z,9.52
2023-04-26T23:43:45.072Z,9.51
2023-04-26T23:46:17.525Z,9.48
2023-04-26T23:48:49.952Z,9.48
2023-04-26T23:51:22.255Z,9.47
2023-04-26T23:53:54.778Z,9.42
2023-04-26T23:56:27.210Z,9.35
2023-04-26T23:58:59.578Z,9.37
